San Antonio North's Hourly Summary for Thursday, May 10, 2018
Hour Temp
(f)
RH
(%)
Solar Rad.
(MJ/m2)
Rainfall
(in)
Wind
(mph)
5/10/2018 12:00 AM 71 65 0 0 1.58
5/10/2018 1:00 AM 69 76 0 0 1.05
5/10/2018 2:00 AM 69 80 0 0 1.22
5/10/2018 3:00 AM 68 83 0 0 0.67
5/10/2018 4:00 AM 67 87 0 0 0.7
5/10/2018 5:00 AM 68 87 0 0 0.46
5/10/2018 6:00 AM 68 87 0 0 0.85
5/10/2018 7:00 AM 67 88 0 0 0.82
5/10/2018 8:00 AM 68 87 0.18 0 0.85
5/10/2018 9:00 AM 69 79 0.43 0 0.99
5/10/2018 10:00 AM 72 65 1.2 0 1.03
5/10/2018 11:00 AM 76 57 1.97 0 1.32
5/10/2018 12:00 PM 79 44 2.73 0 1.64
5/10/2018 1:00 PM 83 40 3.47 0 1.75
5/10/2018 2:00 PM 85 34 3.64 0 1.9
5/10/2018 3:00 PM 86 33 3.53 0 2.14
5/10/2018 4:00 PM 88 28 3.15 0 2.12
5/10/2018 5:00 PM 89 27 2.67 0 2.08
5/10/2018 6:00 PM 89 26 2 0 2.12
5/10/2018 7:00 PM 88 27 1.24 0 1.84
5/10/2018 8:00 PM 85 31 0.46 0 1.98
5/10/2018 9:00 PM 81 36 0.01 0 1.8
5/10/2018 10:00 PM 78 48 0 0 1.66
5/10/2018 11:00 PM 75 57 0 0 2
Data Summary 76 57 26.68 0.00 1.44